createdAt,value
2022-11-20T00:02:52.027Z,2.51
2022-11-20T00:05:20.894Z,2.68
2022-11-20T00:07:50.376Z,2.64
2022-11-20T00:10:24.117Z,2.52
2022-11-20T00:12:53.494Z,2.43
2022-11-20T00:15:23.187Z,2.59
2022-11-20T00:17:52.434Z,2.47
2022-11-20T00:20:20.321Z,2.65
2022-11-20T00:22:48.235Z,2.66
2022-11-20T00:25:15.884Z,2.70
2022-11-20T00:27:43.568Z,2.56
2022-11-20T00:30:14.864Z,2.55
2022-11-20T00:32:44.116Z,2.52
2022-11-20T00:35:15.070Z,2.39
2022-11-20T00:37:42.825Z,2.40
2022-11-20T00:40:14.203Z,2.44
2022-11-20T00:42:45.212Z,2.45
2022-11-20T00:45:13.898Z,2.32
2022-11-20T00:47:44.248Z,2.45
2022-11-20T00:50:12.203Z,2.35
2022-11-20T00:52:43.370Z,2.37
2022-11-20T00:55:10.966Z,2.24
2022-11-20T00:57:38.672Z,2.36
2022-11-20T01:00:07.885Z,2.58
2022-11-20T01:02:35.788Z,2.49
2022-11-20T01:05:04.792Z,2.57
2022-11-20T01:07:34.188Z,2.46
2022-11-20T01:10:03.280Z,2.38
2022-11-20T01:12:30.942Z,2.37
2022-11-20T01:14:58.558Z,2.46
2022-11-20T01:17:26.268Z,2.51
2022-11-20T01:19:53.865Z,2.54
2022-11-20T01:22:24.303Z,2.35
2022-11-20T01:24:52.183Z,2.52
2022-11-20T01:27:21.173Z,2.63
2022-11-20T01:29:50.800Z,2.61
2022-11-20T01:32:18.724Z,2.38
2022-11-20T01:34:50.377Z,2.29
2022-11-20T01:37:23.177Z,2.36
2022-11-20T01:39:50.878Z,2.46
2022-11-20T01:42:38.250Z,2.29
2022-11-20T01:45:39.278Z,2.17
2022-11-20T01:48:14.254Z,2.15
2022-11-20T01:50:44.923Z,2.22
2022-11-20T01:53:20.423Z,2.24
2022-11-20T01:55:52.044Z,2.47
2022-11-20T01:58:27.399Z,2.44
2022-11-20T02:00:56.975Z,2.50
2022-11-20T02:03:26.871Z,2.37
2022-11-20T02:06:01.420Z,2.36
2022-11-20T02:08:30.802Z,2.28
2022-11-20T02:10:58.681Z,2.28
2022-11-20T02:13:44.297Z,2.16
2022-11-20T02:16:23.167Z,2.17
2022-11-20T02:18:58.147Z,2.31
2022-11-20T02:21:32.775Z,2.37
2022-11-20T02:24:06.689Z,2.42
2022-11-20T02:26:40.368Z,2.62
2022-11-20T02:29:08.137Z,2.67
2022-11-20T02:31:39.070Z,2.64
2022-11-20T02:34:08.487Z,2.38
2022-11-20T02:36:38.100Z,2.25
2022-11-20T02:39:08.017Z,2.47
2022-11-20T02:41:37.202Z,2.31
2022-11-20T02:44:07.292Z,2.46
2022-11-20T02:46:35.877Z,2.34
2022-11-20T02:49:04.763Z,2.42
2022-11-20T02:51:33.300Z,2.15
2022-11-20T02:54:01.271Z,2.34
2022-11-20T02:56:30.487Z,2.20
2022-11-20T02:58:58.191Z,2.19
2022-11-20T03:01:26.184Z,2.29
2022-11-20T03:03:55.425Z,2.35
2022-11-20T03:06:23.636Z,2.23
2022-11-20T03:08:51.353Z,2.24
2022-11-20T03:11:19.927Z,2.24
2022-11-20T03:13:50.002Z,2.36
2022-11-20T03:16:19.853Z,2.33
2022-11-20T03:18:47.825Z,1.99
2022-11-20T03:21:16.134Z,1.82
2022-11-20T03:23:44.131Z,1.84
2022-11-20T03:26:16.715Z,2.04
2022-11-20T03:28:50.493Z,1.95
2022-11-20T03:31:23.110Z,1.88
2022-11-20T03:33:51.156Z,1.89
2022-11-20T03:36:23.198Z,2.01
2022-11-20T03:38:51.391Z,2.00
2022-11-20T03:41:21.236Z,1.86
2022-11-20T03:43:50.222Z,1.88
2022-11-20T03:46:18.165Z,1.89
2022-11-20T03:48:51.350Z,1.81
2022-11-20T03:51:24.043Z,1.82
2022-11-20T03:53:53.269Z,1.87
2022-11-20T03:56:27.713Z,1.98
2022-11-20T03:58:55.835Z,2.01
2022-11-20T04:01:24.894Z,2.04
2022-11-20T04:03:56.809Z,2.19
2022-11-20T04:06:26.110Z,1.98
2022-11-20T04:08:56.206Z,1.83
2022-11-20T04:11:27.719Z,1.90
2022-11-20T04:13:56.708Z,2.18
2022-11-20T04:16:33.406Z,2.08
2022-11-20T04:19:05.061Z,2.07
2022-11-20T04:21:32.883Z,1.99
2022-11-20T04:24:00.949Z,2.08
2022-11-20T04:26:30.323Z,1.97
2022-11-20T04:28:58.951Z,1.98
2022-11-20T04:31:28.746Z,2.00
2022-11-20T04:33:56.837Z,1.78
2022-11-20T04:36:27.879Z,1.76
2022-11-20T04:38:57.480Z,1.92
2022-11-20T04:41:26.736Z,2.03
2022-11-20T04:44:00.000Z,2.28
2022-11-20T04:46:29.515Z,2.29
2022-11-20T04:48:57.947Z,2.13
2022-11-20T04:51:27.121Z,2.17
2022-11-20T04:53:55.526Z,2.25
2022-11-20T04:56:23.444Z,2.14
2022-11-20T04:58:51.768Z,1.98
2022-11-20T05:01:21.342Z,2.18
2022-11-20T05:03:49.241Z,2.01
2022-11-20T05:06:19.290Z,2.08
2022-11-20T05:08:48.293Z,2.24
2022-11-20T05:11:18.517Z,2.22
2022-11-20T05:13:46.457Z,2.22
2022-11-20T05:16:17.071Z,2.21
2022-11-20T05:18:45.324Z,2.41
2022-11-20T05:21:14.165Z,2.45
2022-11-20T05:23:42.560Z,2.31
2022-11-20T05:26:15.702Z,2.33
2022-11-20T05:28:44.200Z,2.66
2022-11-20T05:31:14.066Z,2.78
2022-11-20T05:33:42.543Z,2.88
2022-11-20T05:36:11.721Z,2.74
2022-11-20T05:38:40.407Z,2.69
2022-11-20T05:41:10.178Z,2.64
2022-11-20T05:43:41.199Z,2.42
2022-11-20T05:46:11.022Z,2.37
2022-11-20T05:48:40.061Z,2.33
2022-11-20T05:51:09.798Z,2.34
2022-11-20T05:53:48.576Z,2.25
2022-11-20T05:56:19.762Z,2.34
2022-11-20T05:58:49.814Z,2.38
2022-11-20T06:01:19.327Z,2.28
2022-11-20T06:03:48.910Z,2.23
2022-11-20T06:06:17.450Z,2.46
2022-11-20T06:08:45.916Z,2.28
2022-11-20T06:11:15.088Z,2.51
2022-11-20T06:13:43.135Z,2.54
2022-11-20T06:16:13.498Z,2.27
2022-11-20T06:18:41.316Z,2.35
2022-11-20T06:21:10.738Z,2.40
2022-11-20T06:23:38.802Z,2.45
2022-11-20T06:26:08.693Z,2.23
2022-11-20T06:28:36.868Z,2.27
2022-11-20T06:31:04.953Z,2.41
2022-11-20T06:33:34.531Z,2.33
2022-11-20T06:36:09.108Z,2.25
2022-11-20T06:38:38.540Z,2.34
2022-11-20T06:41:07.234Z,2.40
2022-11-20T06:43:34.885Z,2.37
2022-11-20T06:46:02.518Z,2.23
2022-11-20T06:48:30.866Z,1.94
2022-11-20T06:51:00.150Z,1.93
2022-11-20T06:53:27.754Z,2.09
2022-11-20T06:55:59.466Z,2.00
2022-11-20T06:58:29.220Z,2.07
2022-11-20T07:01:00.677Z,1.80
2022-11-20T07:03:28.722Z,2.05
2022-11-20T07:05:57.347Z,2.05
2022-11-20T07:08:29.228Z,2.17
2022-11-20T07:11:00.477Z,2.14
2022-11-20T07:13:28.499Z,2.04
2022-11-20T07:15:56.537Z,2.14
2022-11-20T07:18:24.172Z,2.01
2022-11-20T07:20:52.244Z,2.33
2022-11-20T07:23:19.839Z,2.63
2022-11-20T07:25:50.204Z,2.42
2022-11-20T07:28:17.818Z,2.53
2022-11-20T07:30:51.971Z,2.63
2022-11-20T07:33:19.580Z,2.79
2022-11-20T07:35:47.208Z,3.02
2022-11-20T07:38:15.080Z,3.02
2022-11-20T07:40:42.708Z,3.03
2022-11-20T07:43:12.180Z,3.01
2022-11-20T07:45:40.108Z,2.94
2022-11-20T07:48:08.793Z,3.12
2022-11-20T07:50:36.574Z,3.30
2022-11-20T07:53:05.576Z,3.35
2022-11-20T07:55:34.046Z,3.24
2022-11-20T07:58:01.951Z,3.26
2022-11-20T08:00:31.207Z,3.56
2022-11-20T08:02:58.920Z,3.63
2022-11-20T08:05:26.574Z,3.47
2022-11-20T08:07:54.286Z,3.46
2022-11-20T08:10:22.088Z,3.36
2022-11-20T08:13:09.355Z,3.56
2022-11-20T08:15:39.825Z,3.54
2022-11-20T08:18:30.077Z,3.66
2022-11-20T08:20:57.046Z,3.80
2022-11-20T08:23:25.110Z,3.85
2022-11-20T08:25:52.925Z,3.87
2022-11-20T08:28:22.340Z,3.83
2022-11-20T08:30:52.966Z,3.77
2022-11-20T08:33:20.610Z,3.69
2022-11-20T08:35:49.039Z,3.76
2022-11-20T08:38:16.917Z,4.04
2022-11-20T08:41:06.115Z,4.17
2022-11-20T08:43:33.874Z,4.25
2022-11-20T08:46:02.847Z,4.29
2022-11-20T08:48:30.428Z,3.84
2022-11-20T08:51:00.201Z,3.72
2022-11-20T08:53:27.780Z,3.59
2022-11-20T08:55:55.544Z,3.71
2022-11-20T08:58:23.079Z,3.82
2022-11-20T09:00:50.726Z,3.59
2022-11-20T09:03:21.769Z,3.79
2022-11-20T09:05:49.439Z,4.05
2022-11-20T09:08:17.126Z,4.30
2022-11-20T09:10:44.749Z,4.70
2022-11-20T09:13:13.023Z,5.06
2022-11-20T09:15:40.571Z,5.13
2022-11-20T09:18:08.120Z,5.13
2022-11-20T09:20:37.931Z,5.38
2022-11-20T09:23:05.671Z,5.58
2022-11-20T09:25:33.310Z,5.10
2022-11-20T09:28:02.432Z,5.17
2022-11-20T09:30:29.985Z,5.01
2022-11-20T09:32:57.570Z,5.19
2022-11-20T09:35:25.322Z,5.22
2022-11-20T09:37:55.875Z,5.41
2022-11-20T09:40:25.546Z,5.43
2022-11-20T09:42:59.310Z,5.71
2022-11-20T09:45:38.968Z,5.86
2022-11-20T09:48:24.124Z,5.91
2022-11-20T09:50:58.015Z,6.11
2022-11-20T09:53:36.061Z,5.89
2022-11-20T09:56:05.675Z,6.00
2022-11-20T09:58:39.208Z,6.19
2022-11-20T10:01:13.138Z,6.15
2022-11-20T10:03:51.594Z,6.18
2022-11-20T10:06:23.545Z,6.25
2022-11-20T10:09:03.168Z,6.24
2022-11-20T10:11:38.192Z,6.46
2022-11-20T10:14:22.697Z,6.63
2022-11-20T10:17:00.452Z,6.61
2022-11-20T10:19:46.049Z,6.22
2022-11-20T10:22:28.063Z,5.88
2022-11-20T10:25:10.194Z,5.92
2022-11-20T10:28:22.213Z,5.93
2022-11-20T10:30:58.711Z,6.10
2022-11-20T10:33:38.771Z,6.20
2022-11-20T10:36:23.416Z,6.30
2022-11-20T10:38:56.669Z,6.41
2022-11-20T10:41:37.084Z,6.02
2022-11-20T10:44:07.608Z,6.02
2022-11-20T10:46:41.000Z,5.90
2022-11-20T10:49:15.528Z,5.90
2022-11-20T10:51:54.189Z,5.98
2022-11-20T10:54:27.465Z,6.10
2022-11-20T10:57:02.624Z,6.09
2022-11-20T10:59:51.436Z,6.18
2022-11-20T11:02:21.645Z,6.10
2022-11-20T11:04:54.017Z,6.40
2022-11-20T11:07:26.050Z,6.29
2022-11-20T11:09:56.841Z,6.35
2022-11-20T11:12:29.377Z,6.30
2022-11-20T11:14:59.652Z,6.32
2022-11-20T11:17:29.521Z,6.20
2022-11-20T11:20:13.624Z,6.28
2022-11-20T11:22:47.211Z,6.25
2022-11-20T11:25:24.518Z,6.33
2022-11-20T11:27:57.710Z,6.37
2022-11-20T11:30:29.429Z,6.21
2022-11-20T11:33:08.268Z,6.48
2022-11-20T11:35:35.984Z,6.36
2022-11-20T11:38:09.324Z,6.33
2022-11-20T11:40:39.484Z,6.25
2022-11-20T11:43:37.864Z,6.16
2022-11-20T11:46:15.579Z,6.48
2022-11-20T11:48:50.529Z,6.41
2022-11-20T11:51:22.199Z,6.64
2022-11-20T11:53:49.846Z,6.96
2022-11-20T11:56:18.032Z,6.84
2022-11-20T11:58:49.749Z,6.74
2022-11-20T12:01:28.760Z,6.85
2022-11-20T12:04:04.246Z,7.11
2022-11-20T12:06:34.198Z,7.11
2022-11-20T12:09:07.139Z,6.86
2022-11-20T12:11:42.093Z,7.27
2022-11-20T12:14:27.425Z,7.79
2022-11-20T12:16:57.976Z,7.87
2022-11-20T12:19:26.275Z,7.60
2022-11-20T12:22:03.370Z,7.06
2022-11-20T12:24:50.892Z,7.00
2022-11-20T12:28:00.587Z,6.90
2022-11-20T12:30:29.988Z,6.66
2022-11-20T12:33:14.591Z,6.97
2022-11-20T12:36:03.971Z,6.84
2022-11-20T12:39:13.537Z,6.75
2022-11-20T12:42:11.195Z,6.73
2022-11-20T12:45:13.652Z,6.31
2022-11-20T12:48:06.662Z,6.46
2022-11-20T12:51:08.002Z,6.52
2022-11-20T12:53:40.328Z,6.56
2022-11-20T12:56:20.309Z,6.37
2022-11-20T12:58:57.782Z,6.44
2022-11-20T13:01:41.925Z,6.46
2022-11-20T13:04:22.237Z,6.30
2022-11-20T13:06:50.815Z,6.38
2022-11-20T13:09:22.770Z,6.31
2022-11-20T13:11:59.298Z,6.04
2022-11-20T13:14:35.918Z,6.26
2022-11-20T13:17:15.601Z,6.03
2022-11-20T13:19:50.329Z,7.00
2022-11-20T13:22:26.599Z,6.78
2022-11-20T13:24:54.428Z,6.92
2022-11-20T13:27:24.223Z,8.02
2022-11-20T13:30:04.600Z,8.03
2022-11-20T13:32:33.357Z,8.29
2022-11-20T13:35:05.086Z,8.30
2022-11-20T13:37:35.720Z,8.04
2022-11-20T13:40:24.083Z,8.18
2022-11-20T13:43:03.536Z,7.59
2022-11-20T13:45:35.640Z,7.57
2022-11-20T13:48:08.987Z,7.53
2022-11-20T13:50:53.048Z,6.75
2022-11-20T13:53:38.823Z,6.36
2022-11-20T13:56:15.717Z,6.09
2022-11-20T13:58:55.635Z,6.33
2022-11-20T14:01:26.179Z,6.46
2022-11-20T14:04:06.088Z,6.38
2022-11-20T14:06:43.113Z,6.28
2022-11-20T14:09:14.548Z,6.13
2022-11-20T14:11:48.837Z,6.09
2022-11-20T14:14:21.729Z,5.97
2022-11-20T14:16:50.756Z,5.96
2022-11-20T14:19:31.672Z,6.03
2022-11-20T14:22:18.838Z,6.16
2022-11-20T14:24:46.944Z,6.11
2022-11-20T14:27:16.770Z,6.41
2022-11-20T14:29:46.472Z,6.28
2022-11-20T14:32:17.510Z,6.42
2022-11-20T14:34:47.616Z,6.49
2022-11-20T14:37:23.607Z,6.10
2022-11-20T14:39:53.817Z,6.19
2022-11-20T14:42:23.331Z,5.93
2022-11-20T14:44:52.327Z,6.01
2022-11-20T14:47:23.354Z,6.06
2022-11-20T14:49:52.126Z,6.10
2022-11-20T14:52:25.902Z,6.18
2022-11-20T14:54:55.272Z,6.23
2022-11-20T14:57:26.832Z,5.97
2022-11-20T15:00:08.472Z,5.79
2022-11-20T15:02:36.583Z,5.58
2022-11-20T15:05:07.487Z,5.69
2022-11-20T15:07:41.632Z,5.84
2022-11-20T15:10:12.223Z,5.91
2022-11-20T15:12:48.019Z,6.01
2022-11-20T15:15:21.128Z,5.88
2022-11-20T15:17:49.107Z,5.80
2022-11-20T15:20:18.361Z,5.90
2022-11-20T15:22:47.293Z,5.71
2022-11-20T15:25:16.259Z,5.70
2022-11-20T15:27:44.105Z,5.80
2022-11-20T15:30:16.117Z,5.79
2022-11-20T15:32:45.234Z,5.91
2022-11-20T15:35:13.078Z,5.86
2022-11-20T15:37:42.862Z,5.87
2022-11-20T15:40:12.728Z,5.76
2022-11-20T15:43:00.328Z,5.57
2022-11-20T15:45:30.784Z,5.74
2022-11-20T15:48:01.716Z,5.76
2022-11-20T15:50:34.892Z,5.84
2022-11-20T15:53:02.535Z,5.92
2022-11-20T15:55:32.541Z,5.78
2022-11-20T15:58:00.409Z,5.68
2022-11-20T16:00:28.033Z,5.80
2022-11-20T16:02:55.633Z,5.73
2022-11-20T16:05:25.000Z,5.72
2022-11-20T16:07:52.997Z,5.67
2022-11-20T16:10:20.891Z,5.78
2022-11-20T16:13:07.809Z,5.70
2022-11-20T16:15:48.124Z,5.78
2022-11-20T16:18:18.265Z,5.97
2022-11-20T16:20:46.792Z,5.72
2022-11-20T16:23:14.959Z,5.56
2022-11-20T16:25:42.783Z,5.74
2022-11-20T16:28:17.426Z,5.90
2022-11-20T16:30:46.868Z,6.01
2022-11-20T16:33:16.331Z,5.98
2022-11-20T16:35:43.945Z,5.92
2022-11-20T16:38:14.029Z,5.78
2022-11-20T16:40:41.706Z,5.89
2022-11-20T16:43:12.885Z,5.96
2022-11-20T16:45:45.844Z,5.96
2022-11-20T16:48:20.269Z,5.86
2022-11-20T16:50:50.028Z,5.67
2022-11-20T16:53:17.853Z,5.72
2022-11-20T16:55:45.959Z,5.80
2022-11-20T16:58:15.047Z,5.60
2022-11-20T17:00:48.344Z,5.61
2022-11-20T17:03:18.040Z,5.76
2022-11-20T17:05:45.798Z,5.77
2022-11-20T17:08:13.487Z,5.81
2022-11-20T17:10:42.478Z,5.89
2022-11-20T17:13:10.126Z,5.95
2022-11-20T17:15:40.176Z,5.87
2022-11-20T17:18:08.030Z,5.75
2022-11-20T17:20:36.020Z,5.66
2022-11-20T17:23:03.740Z,5.69
2022-11-20T17:25:34.394Z,5.68
2022-11-20T17:28:02.121Z,5.74
2022-11-20T17:30:29.767Z,5.77
2022-11-20T17:32:58.687Z,5.93
2022-11-20T17:35:26.439Z,6.06
2022-11-20T17:37:54.085Z,5.75
2022-11-20T17:40:26.016Z,5.79
2022-11-20T17:42:55.060Z,5.93
2022-11-20T17:45:22.638Z,6.04
2022-11-20T17:47:50.639Z,5.99
2022-11-20T17:50:19.799Z,5.98
2022-11-20T17:52:47.448Z,5.99
2022-11-20T17:55:15.800Z,5.88
2022-11-20T17:57:56.644Z,5.92
2022-11-20T18:00:25.342Z,5.99
2022-11-20T18:02:53.263Z,5.90
2022-11-20T18:05:22.394Z,5.70
2022-11-20T18:07:53.582Z,5.65
2022-11-20T18:10:21.292Z,5.81
2022-11-20T18:12:48.973Z,5.91
2022-11-20T18:15:17.159Z,5.88
2022-11-20T18:17:44.748Z,6.00
2022-11-20T18:20:38.239Z,6.12
2022-11-20T18:23:16.685Z,6.10
2022-11-20T18:25:47.903Z,6.07
2022-11-20T18:28:19.801Z,6.06
2022-11-20T18:30:47.984Z,6.27
2022-11-20T18:33:15.577Z,6.29
2022-11-20T18:35:45.891Z,6.22
2022-11-20T18:38:15.053Z,6.27
2022-11-20T18:40:42.621Z,6.23
2022-11-20T18:43:29.545Z,6.22
2022-11-20T18:46:02.849Z,6.34
2022-11-20T18:48:32.911Z,6.30
2022-11-20T18:51:06.583Z,6.30
2022-11-20T18:53:37.171Z,6.29
2022-11-20T18:56:08.037Z,6.29
2022-11-20T18:58:36.077Z,6.41
2022-11-20T19:01:07.156Z,6.30
2022-11-20T19:03:35.242Z,6.44
2022-11-20T19:06:03.204Z,6.35
2022-11-20T19:08:30.761Z,6.23
2022-11-20T19:11:07.991Z,6.33
2022-11-20T19:13:36.050Z,6.28
2022-11-20T19:16:04.396Z,6.40
2022-11-20T19:18:33.545Z,6.42
2022-11-20T19:21:09.820Z,6.57
2022-11-20T19:23:38.326Z,6.56
2022-11-20T19:26:16.207Z,6.47
2022-11-20T19:28:44.446Z,6.54
2022-11-20T19:31:13.726Z,6.57
2022-11-20T19:33:45.013Z,6.51
2022-11-20T19:36:14.888Z,6.49
2022-11-20T19:38:47.996Z,6.54
2022-11-20T19:41:18.889Z,6.59
2022-11-20T19:43:49.686Z,6.59
2022-11-20T19:46:20.361Z,6.50
2022-11-20T19:48:48.428Z,6.44
2022-11-20T19:51:18.043Z,6.33
2022-11-20T19:53:45.911Z,6.40
2022-11-20T19:56:13.915Z,6.35
2022-11-20T19:58:43.498Z,6.42
2022-11-20T20:01:12.702Z,6.54
2022-11-20T20:03:41.211Z,6.62
2022-11-20T20:06:11.019Z,6.67
2022-11-20T20:08:39.011Z,6.80
2022-11-20T20:11:14.890Z,6.64
2022-11-20T20:13:45.079Z,6.72
2022-11-20T20:16:14.620Z,6.75
2022-11-20T20:18:43.013Z,6.82
2022-11-20T20:21:12.347Z,6.73
2022-11-20T20:23:40.683Z,6.74
2022-11-20T20:26:10.523Z,6.81
2022-11-20T20:28:39.363Z,6.59
2022-11-20T20:31:09.659Z,6.52
2022-11-20T20:33:38.350Z,6.60
2022-11-20T20:36:08.598Z,6.52
2022-11-20T20:38:37.961Z,6.44
2022-11-20T20:41:05.877Z,6.50
2022-11-20T20:43:53.829Z,6.61
2022-11-20T20:46:23.276Z,6.43
2022-11-20T20:48:54.410Z,6.32
2022-11-20T20:51:23.240Z,6.44
2022-11-20T20:53:51.308Z,6.30
2022-11-20T20:56:20.073Z,6.42
2022-11-20T20:58:48.186Z,6.38
2022-11-20T21:01:18.821Z,6.43
2022-11-20T21:03:48.485Z,6.53
2022-11-20T21:06:16.343Z,6.68
2022-11-20T21:08:46.855Z,6.62
2022-11-20T21:11:16.059Z,6.66
2022-11-20T21:13:45.409Z,6.60
2022-11-20T21:16:13.987Z,6.67
2022-11-20T21:18:41.614Z,6.56
2022-11-20T21:21:31.727Z,6.53
2022-11-20T21:24:00.930Z,6.65
2022-11-20T21:26:29.038Z,6.56
2022-11-20T21:28:58.495Z,6.36
2022-11-20T21:31:27.030Z,6.30
2022-11-20T21:33:57.656Z,6.31
2022-11-20T21:36:28.083Z,6.18
2022-11-20T21:38:57.197Z,6.06
2022-11-20T21:41:28.604Z,5.94
2022-11-20T21:44:29.614Z,5.90
2022-11-20T21:46:46.396Z,6.07
2022-11-20T21:49:15.414Z,6.06
2022-11-20T21:51:44.664Z,6.14
2022-11-20T21:54:13.724Z,6.14
2022-11-20T21:56:41.617Z,6.12
2022-11-20T21:59:12.892Z,6.22
2022-11-20T22:01:40.615Z,6.16
2022-11-20T22:04:08.366Z,6.25
2022-11-20T22:06:35.907Z,6.18
2022-11-20T22:09:05.214Z,6.12
2022-11-20T22:11:33.098Z,6.25
2022-11-20T22:14:18.625Z,6.18
2022-11-20T22:16:46.482Z,6.19
2022-11-20T22:19:20.051Z,6.25
2022-11-20T22:21:51.275Z,6.18
2022-11-20T22:24:23.704Z,6.12
2022-11-20T22:26:53.506Z,6.03
2022-11-20T22:29:22.239Z,5.97
2022-11-20T22:31:52.705Z,6.01
2022-11-20T22:34:21.434Z,6.11
2022-11-20T22:36:50.443Z,6.01
2022-11-20T22:39:22.624Z,6.02
2022-11-20T22:41:51.265Z,6.12
2022-11-20T22:44:20.011Z,6.21
2022-11-20T22:46:47.582Z,6.11
2022-11-20T22:49:15.754Z,6.22
2022-11-20T22:51:45.578Z,6.12
2022-11-20T22:54:14.867Z,6.16
2022-11-20T22:56:51.391Z,6.04
2022-11-20T22:59:19.272Z,6.07
2022-11-20T23:01:46.866Z,6.04
2022-11-20T23:04:15.331Z,6.13
2022-11-20T23:06:43.091Z,6.10
2022-11-20T23:09:12.727Z,6.08
2022-11-20T23:11:40.335Z,6.05
2022-11-20T23:14:15.252Z,6.18
2022-11-20T23:16:43.281Z,6.05
2022-11-20T23:19:13.097Z,5.96
2022-11-20T23:21:42.529Z,6.06
2022-11-20T23:24:10.842Z,6.01
2022-11-20T23:26:40.710Z,6.06
2022-11-20T23:29:09.913Z,6.05
2022-11-20T23:31:37.693Z,6.06
2022-11-20T23:34:06.373Z,5.97
2022-11-20T23:36:33.995Z,5.97
2022-11-20T23:39:01.708Z,5.96
2022-11-20T23:41:29.320Z,6.07
2022-11-20T23:43:56.918Z,6.01
2022-11-20T23:46:25.886Z,6.03
2022-11-20T23:48:53.611Z,6.05
2022-11-20T23:51:21.253Z,6.08
2022-11-20T23:53:49.033Z,6.05
2022-11-20T23:56:16.692Z,6.01
2022-11-20T23:58:44.691Z,6.12
